Kyokaimaru No.75 — JL6374 — position and weather

sailwx.info

Track history (hours):
 
Tides and Currents Weather Stations Pressure Air Temp Water Temp Dewpoint Dewpoint Depression Visibility Wind Speed Wind Dir Waves Ship Positions

Kyokaimaru No.75

Last reported at 2018-Jun-14 11:45 UTC. Time now 2018-Jun-21 02:42 UTC.
Position N 34°24' E 134°18'.

Length 68 m; draft 4.5 m.

Type: Tanker. MMSI: 431400692.

Date/timePositionNaut miles runAvg speedWind from/ knotsBaromVisibWave heightAir tempDewpointWater temp
2018-Jun-14 11:45N 34°24' E 134°18'312.6
2018-Jun-14 11:29N 34°25' E 134°22'612.3
2018-Jun-14 11:00N 34°27' E 134°28'612.3
2018-Jun-14 10:30N 34°30' E 134°35'612.7
2018-Jun-14 10:00N 34°32' E 134°43'713.3
2018-Jun-14 09:30N 34°35' E 134°50'713.9
2018-Jun-14 09:00N 34°37' E 134°58'611.6
2018-Jun-14 08:30N 34°36' E 135°04'510.4
2018-Jun-14 08:00N 34°35' E 135°11'511.0
2018-Jun-14 07:30N 34°34' E 135°17'510.0
2018-Jun-14 07:00N 34°34' E 135°24'2 0.2
2018-Jun-13 22:14N 34°33' E 135°26'0 0.8
2018-Jun-13 22:01N 34°33' E 135°25'2 3.2
2018-Jun-13 21:20N 34°34' E 135°23'0 0.1
2018-Jun-13 20:56N 34°34' E 135°23'0 0.1
2018-Jun-13 20:14N 34°34' E 135°23'0 0.0
2018-Jun-13 19:56N 34°34' E 135°23'0 0.0
2018-Jun-13 19:20N 34°34' E 135°23'0 0.0
2018-Jun-13 18:56N 34°34' E 135°23'0 0.0
2018-Jun-13 18:20N 34°34' E 135°23'0 0.0
2018-Jun-13 17:56N 34°34' E 135°23'0 0.0
2018-Jun-13 17:26N 34°34' E 135°23'0 0.0
2018-Jun-13 16:56N 34°34' E 135°23'0 0.0
2018-Jun-13 16:08N 34°34' E 135°23'0 0.0
2018-Jun-13 15:50N 34°34' E 135°23'0 0.0
2018-Jun-13 12:38N 34°34' E 135°23'0 0.0
2018-Jun-13 12:26N 34°34' E 135°23'0 0.0
2018-Jun-13 11:56N 34°34' E 135°23'0 0.0
2018-Jun-13 11:14N 34°34' E 135°23'0 0.0
2018-Jun-13 10:50N 34°34' E 135°23'0 0.0
2018-Jun-13 10:26N 34°34' E 135°23'0 0.0
2018-Jun-13 09:38N 34°34' E 135°23'0 0.0
2018-Jun-13 09:23N 34°34' E 135°23'0 0.0
2018-Jun-13 07:38N 34°34' E 135°23'0 0.0
2018-Jun-13 05:41N 34°34' E 135°23'2 9.2
2018-Jun-13 05:30N 34°34' E 135°21'612.3
2018-Jun-13 05:00N 34°34' E 135°14'713.4
2018-Jun-13 04:30N 34°35' E 135°06'1114.8
2018-Jun-13 03:46N 34°35' E 134°52'414.4
2018-Jun-13 03:30N 34°33' E 134°48'613.0
2018-Jun-13 03:01N 34°30' E 134°41'612.7
2018-Jun-13 02:30N 34°28' E 134°34'612.9
2018-Jun-13 02:00N 34°25' E 134°27'  
2018-Jun-08 05:47N 34°25' E 134°23'412.4
2018-Jun-08 05:29N 34°27' E 134°27'612.2
2018-Jun-08 05:00N 34°29' E 134°33'612.4
2018-Jun-08 04:30N 34°31' E 134°40'612.0
2018-Jun-08 04:00N 34°33' E 134°47'711.9
2018-Jun-08 03:23N 34°36' E 134°55'510.7
2018-Jun-08 02:54N 34°37' E 135°01'4 9.6
2018-Jun-08 02:31N 34°36' E 135°05'611.8
2018-Jun-08 02:00N 34°35' E 135°13'612.0
2018-Jun-08 01:29N 34°34' E 135°20'4 8.5
2018-Jun-08 00:59N 34°33' E 135°25'0 0.1
2018-Jun-07 22:16N 34°33' E 135°26'1 3.9
2018-Jun-07 22:00N 34°33' E 135°24'611.9
2018-Jun-07 21:30N 34°33' E 135°17'611.8
2018-Jun-07 21:00N 34°34' E 135°10'612.0
2018-Jun-07 20:30N 34°36' E 135°03'910.2
2018-Jun-07 19:36N 34°35' E 134°52'110.8
2018-Jun-07 19:29N 34°34' E 134°51'510.9
2018-Jun-07 19:00N 34°32' E 134°45'611.8
2018-Jun-07 18:29N 34°29' E 134°38'812.3
2018-Jun-07 17:49N 34°26' E 134°29'  
Track history (hours):
 
Tides and Currents Weather Stations Pressure Air Temp Water Temp Dewpoint Dewpoint Depression Visibility Wind Speed Wind Dir Waves Ship Positions

Kyokaimaru No.75

Last reported at 2018-Jun-14 11:45 UTC. Time now 2018-Jun-21 02:42 UTC.
Position N 34°24' E 134°18'.

Length 68 m; draft 4.5 m.

Type: Tanker. MMSI: 431400692.

Date/timePositionNaut miles runAvg speedWind from/ knotsBaromVisibWave heightAir tempDewpointWater temp
2018-Jun-14 11:45N 34°24' E 134°18'312.6
2018-Jun-14 11:29N 34°25' E 134°22'612.3
2018-Jun-14 11:00N 34°27' E 134°28'612.3
2018-Jun-14 10:30N 34°30' E 134°35'612.7
2018-Jun-14 10:00N 34°32' E 134°43'713.3
2018-Jun-14 09:30N 34°35' E 134°50'713.9
2018-Jun-14 09:00N 34°37' E 134°58'611.6
2018-Jun-14 08:30N 34°36' E 135°04'510.4
2018-Jun-14 08:00N 34°35' E 135°11'511.0
2018-Jun-14 07:30N 34°34' E 135°17'510.0
2018-Jun-14 07:00N 34°34' E 135°24'2 0.2
2018-Jun-13 22:14N 34°33' E 135°26'0 0.8
2018-Jun-13 22:01N 34°33' E 135°25'2 3.2
2018-Jun-13 21:20N 34°34' E 135°23'0 0.1
2018-Jun-13 20:56N 34°34' E 135°23'0 0.1
2018-Jun-13 20:14N 34°34' E 135°23'0 0.0
2018-Jun-13 19:56N 34°34' E 135°23'0 0.0
2018-Jun-13 19:20N 34°34' E 135°23'0 0.0
2018-Jun-13 18:56N 34°34' E 135°23'0 0.0
2018-Jun-13 18:20N 34°34' E 135°23'0 0.0
2018-Jun-13 17:56N 34°34' E 135°23'0 0.0
2018-Jun-13 17:26N 34°34' E 135°23'0 0.0
2018-Jun-13 16:56N 34°34' E 135°23'0 0.0
2018-Jun-13 16:08N 34°34' E 135°23'0 0.0
2018-Jun-13 15:50N 34°34' E 135°23'0 0.0
2018-Jun-13 12:38N 34°34' E 135°23'0 0.0
2018-Jun-13 12:26N 34°34' E 135°23'0 0.0
2018-Jun-13 11:56N 34°34' E 135°23'0 0.0
2018-Jun-13 11:14N 34°34' E 135°23'0 0.0
2018-Jun-13 10:50N 34°34' E 135°23'0 0.0
2018-Jun-13 10:26N 34°34' E 135°23'0 0.0
2018-Jun-13 09:38N 34°34' E 135°23'0 0.0
2018-Jun-13 09:23N 34°34' E 135°23'0 0.0
2018-Jun-13 07:38N 34°34' E 135°23'0 0.0
2018-Jun-13 05:41N 34°34' E 135°23'2 9.2
2018-Jun-13 05:30N 34°34' E 135°21'612.3
2018-Jun-13 05:00N 34°34' E 135°14'713.4
2018-Jun-13 04:30N 34°35' E 135°06'1114.8
2018-Jun-13 03:46N 34°35' E 134°52'414.4
2018-Jun-13 03:30N 34°33' E 134°48'613.0
2018-Jun-13 03:01N 34°30' E 134°41'612.7
2018-Jun-13 02:30N 34°28' E 134°34'612.9
2018-Jun-13 02:00N 34°25' E 134°27'  
2018-Jun-08 05:47N 34°25' E 134°23'412.4
2018-Jun-08 05:29N 34°27' E 134°27'612.2
2018-Jun-08 05:00N 34°29' E 134°33'612.4
2018-Jun-08 04:30N 34°31' E 134°40'612.0
2018-Jun-08 04:00N 34°33' E 134°47'711.9
2018-Jun-08 03:23N 34°36' E 134°55'510.7
2018-Jun-08 02:54N 34°37' E 135°01'4 9.6
2018-Jun-08 02:31N 34°36' E 135°05'611.8
2018-Jun-08 02:00N 34°35' E 135°13'612.0
2018-Jun-08 01:29N 34°34' E 135°20'4 8.5
2018-Jun-08 00:59N 34°33' E 135°25'0 0.1
2018-Jun-07 22:16N 34°33' E 135°26'1 3.9
2018-Jun-07 22:00N 34°33' E 135°24'611.9
2018-Jun-07 21:30N 34°33' E 135°17'611.8
2018-Jun-07 21:00N 34°34' E 135°10'612.0
2018-Jun-07 20:30N 34°36' E 135°03'910.2
2018-Jun-07 19:36N 34°35' E 134°52'110.8
2018-Jun-07 19:29N 34°34' E 134°51'510.9
2018-Jun-07 19:00N 34°32' E 134°45'611.8
2018-Jun-07 18:29N 34°29' E 134°38'812.3
2018-Jun-07 17:49N 34°26' E 134°29'  

Dump ship's entire track history